LFSI

Saint-Dizier-Robinson (BA 113) Air Base Airport

Saint-Dizier/Robinson, France
TAF LFSI 210800Z 2109/2209 25008KT 9999 BKN030 TEMPO 2118/2121 36012KT SHRA SCT045TCU
Issued Valid From Valid To
Jul-21 @ 08:00 UTC
(2 hours ago)
Jul-21 @ 09:00 UTC
(58 minutes ago)
Jul-22 @ 09:00 UTC
(in 23 hours)
Jul-21 @ 09:00 to Jul-22 @ 09:00
TAF LFSI 210800Z 2109/2209 25008KT 9999 BKN030
Wind Visibility Clouds
250° at 8 knots 10,000+ meters
  • Broken at 3,000' AGL
Temporary Jul-21 @ 18:00 to Jul-21 @ 21:00
TEMPO 2118/2121 36012KT SHRA SCT045TCU
Wind Clouds Conditions
360° at 12 knots
  • Scattered at 4,500' AGL
  • Rain
TAF LFSI 210800Z 2109/2209 25008KT 9999 BKN030 TEMPO 2118/2121 36012KT SHRA SCT045TCU
Issued Jul-21 @ 08:00 UTC
(2 hours ago)
Valid From Jul-21 @ 09:00 UTC
(58 minutes ago)
Valid To Jul-22 @ 09:00 UTC
(in 23 hours)
Jul-21 @ 09:00 - Jul-22 @ 09:00
Wind Visibility
250° at 8 knots 10,000+ meters
Clouds
  • Broken at 3,000' AGL
Temporary Jul-21 @ 18:00 - Jul-21 @ 21:00
Wind
360° at 12 knots
Clouds
  • Scattered at 4,500' AGL
Conditions
  • Rain